createdAt,value
2018-06-09T00:02:26.722Z,99.00
2018-06-09T00:04:56.667Z,98.79
2018-06-09T00:07:26.605Z,99.32
2018-06-09T00:09:58.332Z,99.28
2018-06-09T00:12:28.789Z,98.83
2018-06-09T00:14:59.673Z,98.88
2018-06-09T00:17:28.332Z,98.70
2018-06-09T00:20:05.233Z,98.35
2018-06-09T00:22:34.320Z,98.57
2018-06-09T00:25:04.102Z,99.99
2018-06-09T00:27:32.638Z,100.00
2018-06-09T00:30:01.117Z,99.53
2018-06-09T00:32:29.628Z,99.02
2018-06-09T00:34:58.106Z,99.09
2018-06-09T00:37:26.630Z,99.21
2018-06-09T00:39:55.107Z,98.74
2018-06-09T00:42:23.630Z,99.98
2018-06-09T00:44:52.106Z,99.47
2018-06-09T00:47:20.619Z,98.80
2018-06-09T00:49:49.105Z,98.87
2018-06-09T00:52:17.636Z,98.95
2018-06-09T00:54:46.118Z,99.75
2018-06-09T00:57:14.656Z,99.09
2018-06-09T00:59:43.114Z,99.78
2018-06-09T01:02:11.620Z,100.00
2018-06-09T01:04:40.090Z,100.00
2018-06-09T01:07:08.586Z,100.00
2018-06-09T01:09:37.322Z,99.65
2018-06-09T01:12:06.208Z,99.86
2018-06-09T01:14:34.721Z,99.31
2018-06-09T01:17:03.199Z,99.13
2018-06-09T01:19:31.765Z,99.21
2018-06-09T01:22:00.286Z,99.76
2018-06-09T01:24:28.737Z,99.62
2018-06-09T01:26:58.219Z,99.81
2018-06-09T01:29:26.675Z,99.45
2018-06-09T01:31:55.175Z,99.95
2018-06-09T01:34:23.658Z,99.65
2018-06-09T01:36:52.190Z,99.09
2018-06-09T01:39:20.646Z,98.81
2018-06-09T01:41:49.123Z,99.28
2018-06-09T01:44:17.575Z,98.94
2018-06-09T01:46:46.058Z,99.56
2018-06-09T01:49:14.510Z,99.49
2018-06-09T01:51:43.001Z,99.40
2018-06-09T01:54:11.446Z,98.38
2018-06-09T01:56:39.949Z,98.14
2018-06-09T01:59:08.403Z,100.00
2018-06-09T02:01:36.888Z,100.00
2018-06-09T02:04:05.502Z,100.00
2018-06-09T02:06:34.019Z,100.00
2018-06-09T02:09:02.475Z,100.00
2018-06-09T02:11:30.981Z,100.00
2018-06-09T02:13:59.449Z,100.00
2018-06-09T02:16:28.185Z,100.00
2018-06-09T02:18:56.666Z,100.00
2018-06-09T02:21:25.146Z,99.72
2018-06-09T02:23:53.630Z,100.00
2018-06-09T02:26:22.096Z,99.88
2018-06-09T02:28:50.602Z,98.67
2018-06-09T02:31:19.053Z,98.47
2018-06-09T02:33:47.563Z,98.67
2018-06-09T02:36:16.023Z,99.93
2018-06-09T02:38:44.511Z,99.90
2018-06-09T02:41:12.974Z,99.08
2018-06-09T02:43:41.463Z,99.20
2018-06-09T02:46:10.038Z,98.60
2018-06-09T02:48:38.546Z,99.32
2018-06-09T02:51:07.027Z,99.84
2018-06-09T02:53:35.522Z,99.94
2018-06-09T02:56:04.033Z,99.05
2018-06-09T02:58:32.559Z,100.00
2018-06-09T03:01:01.038Z,100.00
2018-06-09T03:03:29.568Z,100.00
2018-06-09T03:05:58.439Z,99.74
2018-06-09T03:08:26.934Z,99.79
2018-06-09T03:10:55.425Z,100.00
2018-06-09T03:13:23.935Z,100.00
2018-06-09T03:15:52.686Z,100.00
2018-06-09T03:18:21.187Z,99.84
2018-06-09T03:20:49.666Z,99.79
2018-06-09T03:23:18.171Z,99.11
2018-06-09T03:25:46.641Z,99.33
2018-06-09T03:28:15.142Z,99.61
2018-06-09T03:30:43.638Z,100.00
2018-06-09T03:33:12.167Z,100.00
2018-06-09T03:35:40.654Z,100.00
2018-06-09T03:38:09.158Z,100.00
2018-06-09T03:40:37.644Z,100.00
2018-06-09T03:43:06.231Z,100.00
2018-06-09T03:45:34.661Z,99.91
2018-06-09T03:48:03.157Z,99.62
2018-06-09T03:50:31.695Z,100.00
2018-06-09T03:53:00.166Z,100.00
2018-06-09T03:55:28.644Z,98.81
2018-06-09T03:57:57.183Z,98.00
2018-06-09T04:00:25.652Z,98.94
2018-06-09T04:02:54.138Z,99.79
2018-06-09T04:05:22.686Z,99.53
2018-06-09T04:07:51.186Z,100.00
2018-06-09T04:10:19.718Z,100.00
2018-06-09T04:12:48.198Z,99.85
2018-06-09T04:15:18.885Z,100.00
2018-06-09T04:17:47.596Z,100.00
2018-06-09T04:20:16.125Z,100.00
2018-06-09T04:22:44.605Z,100.00
2018-06-09T04:25:13.110Z,99.49
2018-06-09T04:27:41.723Z,100.00
2018-06-09T04:30:10.267Z,99.38
2018-06-09T04:32:39.941Z,99.40
2018-06-09T04:35:08.763Z,100.00
2018-06-09T04:37:37.282Z,99.39
2018-06-09T04:40:05.852Z,99.89
2018-06-09T04:42:34.338Z,99.62
2018-06-09T04:45:02.866Z,100.00
2018-06-09T04:47:31.358Z,99.72
2018-06-09T04:49:59.866Z,99.84
2018-06-09T04:52:28.730Z,100.00
2018-06-09T04:54:57.578Z,100.00
2018-06-09T04:57:26.145Z,100.00
2018-06-09T04:59:54.708Z,100.00
2018-06-09T05:02:24.401Z,100.00
2018-06-09T05:04:52.910Z,99.82
2018-06-09T05:07:22.417Z,99.44
2018-06-09T05:09:51.493Z,99.57
2018-06-09T05:12:19.958Z,99.39
2018-06-09T05:14:48.473Z,99.15
2018-06-09T05:17:17.691Z,98.33
2018-06-09T05:19:46.192Z,99.61
2018-06-09T05:22:14.682Z,100.00
2018-06-09T05:24:43.193Z,99.76
2018-06-09T05:27:11.681Z,100.00
2018-06-09T05:29:40.181Z,100.00
2018-06-09T05:32:08.950Z,98.67
2018-06-09T05:34:37.430Z,98.82
2018-06-09T05:37:05.951Z,100.00
2018-06-09T05:39:34.430Z,99.33
2018-06-09T05:42:02.946Z,99.27
2018-06-09T05:44:31.448Z,98.48
2018-06-09T05:47:00.229Z,98.10
2018-06-09T05:49:28.928Z,99.30
2018-06-09T05:51:59.564Z,99.42
2018-06-09T05:54:28.865Z,98.69
2018-06-09T05:56:57.399Z,97.23
2018-06-09T05:59:25.885Z,96.67
2018-06-09T06:01:54.836Z,96.71
2018-06-09T06:04:28.243Z,96.43
2018-06-09T06:07:06.351Z,95.98
2018-06-09T06:09:40.698Z,96.62
2018-06-09T06:12:14.985Z,96.08
2018-06-09T06:14:45.118Z,95.01
2018-06-09T06:17:14.791Z,94.51
2018-06-09T06:19:43.273Z,93.39
2018-06-09T06:22:12.629Z,94.41
2018-06-09T06:24:41.098Z,95.15
2018-06-09T06:27:09.933Z,95.91
2018-06-09T06:29:38.825Z,94.16
2018-06-09T06:32:07.377Z,94.24
2018-06-09T06:34:35.864Z,94.79
2018-06-09T06:37:04.367Z,94.68
2018-06-09T06:39:32.834Z,94.37
2018-06-09T06:42:01.339Z,93.66
2018-06-09T06:44:29.815Z,95.04
2018-06-09T06:46:59.138Z,95.20
2018-06-09T06:49:27.611Z,93.74
2018-06-09T06:51:56.134Z,93.84
2018-06-09T06:54:31.146Z,93.25
2018-06-09T06:57:08.187Z,93.86
2018-06-09T06:59:36.637Z,94.00
2018-06-09T07:02:05.222Z,93.70
2018-06-09T07:04:33.682Z,93.54
2018-06-09T07:07:02.170Z,93.42
2018-06-09T07:09:30.635Z,92.39
2018-06-09T07:11:59.562Z,90.92
2018-06-09T07:14:28.020Z,89.28
2018-06-09T07:16:56.505Z,88.88
2018-06-09T07:19:24.954Z,88.57
2018-06-09T07:21:53.431Z,87.65
2018-06-09T07:24:21.927Z,89.87
2018-06-09T07:26:50.424Z,91.52
2018-06-09T07:29:18.881Z,88.73
2018-06-09T07:31:47.345Z,89.01
2018-06-09T07:34:15.857Z,85.63
2018-06-09T07:36:44.293Z,88.21
2018-06-09T07:39:12.785Z,87.36
2018-06-09T07:41:41.238Z,83.52
2018-06-09T07:44:09.718Z,84.25
2018-06-09T07:46:38.183Z,85.39
2018-06-09T07:49:06.678Z,85.99
2018-06-09T07:51:35.140Z,85.89
2018-06-09T07:54:03.680Z,85.60
2018-06-09T07:56:32.149Z,85.14
2018-06-09T07:59:00.957Z,83.59
2018-06-09T08:01:30.448Z,84.68
2018-06-09T08:03:59.853Z,85.04
2018-06-09T08:06:30.460Z,85.33
2018-06-09T08:08:59.322Z,83.91
2018-06-09T08:11:27.803Z,81.80
2018-06-09T08:13:56.328Z,81.61
2018-06-09T08:16:24.858Z,81.86
2018-06-09T08:18:53.357Z,84.37
2018-06-09T08:21:21.821Z,83.92
2018-06-09T08:23:50.318Z,80.38
2018-06-09T08:26:21.342Z,80.22
2018-06-09T08:28:50.116Z,81.52
2018-06-09T08:31:18.619Z,80.81
2018-06-09T08:33:47.919Z,81.80
2018-06-09T08:36:16.725Z,83.03
2018-06-09T08:38:45.527Z,84.83
2018-06-09T08:41:14.034Z,84.19
2018-06-09T08:43:42.550Z,84.26
2018-06-09T08:46:11.068Z,81.30
2018-06-09T08:48:39.576Z,83.07
2018-06-09T08:51:09.808Z,82.90
2018-06-09T08:53:38.638Z,81.87
2018-06-09T08:56:07.145Z,81.17
2018-06-09T08:58:35.653Z,80.41
2018-06-09T09:01:22.837Z,84.19
2018-06-09T09:03:52.788Z,81.55
2018-06-09T09:06:24.500Z,82.26
2018-06-09T09:08:53.654Z,80.52
2018-06-09T09:11:25.310Z,78.44
2018-06-09T09:14:04.183Z,78.13
2018-06-09T09:16:40.715Z,79.13
2018-06-09T09:19:15.429Z,77.85
2018-06-09T09:21:50.114Z,77.07
2018-06-09T09:24:25.973Z,77.50
2018-06-09T09:27:03.179Z,76.92
2018-06-09T09:29:37.927Z,75.34
2018-06-09T09:32:12.743Z,77.98
2018-06-09T09:34:49.071Z,79.46
2018-06-09T09:37:24.424Z,77.55
2018-06-09T09:39:59.776Z,77.73
2018-06-09T09:52:11.189Z,78.87
2018-06-09T09:54:47.442Z,78.91
2018-06-09T09:57:22.295Z,77.53
2018-06-09T09:59:58.357Z,81.31
2018-06-09T10:02:28.694Z,77.96
2018-06-09T10:04:57.190Z,77.39
2018-06-09T10:07:33.367Z,79.18
2018-06-09T10:10:03.062Z,77.18
2018-06-09T10:12:31.984Z,75.79
2018-06-09T10:15:00.490Z,74.70
2018-06-09T10:17:32.537Z,76.64
2018-06-09T10:20:01.810Z,73.43
2018-06-09T10:22:34.741Z,75.13
2018-06-09T10:25:03.474Z,75.94
2018-06-09T10:27:34.518Z,70.62
2018-06-09T10:30:10.445Z,71.58
2018-06-09T10:32:47.633Z,70.50
2018-06-09T10:35:22.528Z,70.55
2018-06-09T10:37:58.451Z,69.15
2018-06-09T10:40:33.522Z,70.94
2018-06-09T10:43:10.710Z,71.34
2018-06-09T10:45:48.551Z,70.63
2018-06-09T10:48:22.406Z,71.46
2018-06-09T10:53:36.607Z,71.66
2018-06-09T10:56:17.396Z,69.84
2018-06-09T10:58:53.631Z,69.99
2018-06-09T11:01:31.984Z,67.72
2018-06-09T11:04:08.524Z,68.58
2018-06-09T11:06:44.840Z,68.09
2018-06-09T11:09:25.570Z,69.19
2018-06-09T11:12:02.122Z,70.45
2018-06-09T11:14:39.597Z,70.90
2018-06-09T11:17:18.234Z,70.49
2018-06-09T11:19:55.663Z,69.07
2018-06-09T11:22:32.691Z,70.44
2018-06-09T11:25:09.077Z,70.38
2018-06-09T11:27:44.480Z,69.38
2018-06-09T11:30:19.623Z,68.32
2018-06-09T11:32:55.067Z,68.93
2018-06-09T11:35:27.561Z,67.00
2018-06-09T11:38:03.931Z,67.87
2018-06-09T11:40:38.669Z,68.78
2018-06-09T11:43:14.341Z,67.09
2018-06-09T11:45:49.540Z,69.87
2018-06-09T11:48:25.314Z,66.35
2018-06-09T11:50:54.007Z,69.25
2018-06-09T11:53:22.523Z,68.58
2018-06-09T11:55:50.989Z,67.29
2018-06-09T11:58:19.502Z,67.97
2018-06-09T12:00:47.977Z,66.76
2018-06-09T12:03:16.451Z,67.66
2018-06-09T12:05:44.899Z,68.84
2018-06-09T12:08:13.381Z,68.63
2018-06-09T12:13:44.980Z,65.26
2018-06-09T12:16:13.565Z,66.16
2018-06-09T12:18:42.121Z,64.84
2018-06-09T12:21:10.643Z,63.48
2018-06-09T12:23:39.196Z,62.68
2018-06-09T12:26:07.717Z,63.67
2018-06-09T12:28:36.610Z,63.29
2018-06-09T12:31:05.143Z,63.27
2018-06-09T12:33:33.709Z,62.95
2018-06-09T12:36:07.907Z,66.82
2018-06-09T12:38:50.400Z,66.69
2018-06-09T12:41:25.703Z,62.77
2018-06-09T12:44:03.969Z,68.17
2018-06-09T12:46:40.197Z,66.61
2018-06-09T12:49:15.673Z,62.63
2018-06-09T12:51:50.491Z,65.46
2018-06-09T12:54:30.551Z,62.15
2018-06-09T12:57:00.790Z,63.25
2018-06-09T12:59:30.634Z,61.76
2018-06-09T13:02:03.341Z,59.42
2018-06-09T13:04:32.827Z,63.66
2018-06-09T13:07:01.544Z,62.16
2018-06-09T13:09:30.753Z,64.53
2018-06-09T13:11:59.305Z,60.76
2018-06-09T13:14:28.220Z,57.87
2018-06-09T13:16:56.784Z,61.88
2018-06-09T13:19:27.111Z,58.07
2018-06-09T13:21:56.796Z,64.04
2018-06-09T13:24:25.357Z,64.78
2018-06-09T13:26:57.100Z,61.21
2018-06-09T13:29:25.813Z,59.54
2018-06-09T13:31:54.334Z,57.82
2018-06-09T13:34:22.904Z,61.98
2018-06-09T13:36:51.425Z,56.20
2018-06-09T13:39:20.263Z,58.96
2018-06-09T13:41:48.781Z,59.57
2018-06-09T13:44:17.339Z,58.96
2018-06-09T13:46:48.412Z,60.38
2018-06-09T13:49:17.133Z,55.24
2018-06-09T13:51:45.656Z,54.80
2018-06-09T13:54:14.215Z,55.27
2018-06-09T13:56:42.817Z,55.93
2018-06-09T13:59:11.340Z,55.66
2018-06-09T14:01:40.665Z,57.46
2018-06-09T14:04:09.181Z,58.15
2018-06-09T14:06:37.677Z,57.92
2018-06-09T14:09:07.880Z,57.51
2018-06-09T14:11:37.996Z,59.31
2018-06-09T14:14:06.949Z,58.45
2018-06-09T14:16:35.445Z,60.08
2018-06-09T14:19:04.437Z,62.16
2018-06-09T14:21:33.174Z,65.62
2018-06-09T14:24:01.724Z,66.12
2018-06-09T14:26:33.825Z,68.23
2018-06-09T14:29:02.356Z,71.16
2018-06-09T14:31:33.524Z,74.71
2018-06-09T14:34:03.281Z,75.53
2018-06-09T14:36:32.695Z,79.00
2018-06-09T14:39:01.244Z,81.64
2018-06-09T14:41:29.760Z,83.26
2018-06-09T14:43:58.887Z,83.50
2018-06-09T14:46:27.593Z,82.11
2018-06-09T14:48:56.464Z,82.21
2018-06-09T14:51:24.984Z,82.81
2018-06-09T14:53:53.588Z,83.65
2018-06-09T14:56:22.753Z,85.49
2018-06-09T14:58:51.380Z,83.77
2018-06-09T15:01:19.912Z,82.00
2018-06-09T15:03:48.432Z,87.85
2018-06-09T15:06:16.968Z,90.97
2018-06-09T15:08:45.493Z,94.08
2018-06-09T15:11:15.897Z,94.02
2018-06-09T15:13:44.510Z,93.67
2018-06-09T15:16:13.049Z,93.26
2018-06-09T15:18:41.892Z,95.82
2018-06-09T15:21:10.433Z,94.48
2018-06-09T15:23:39.411Z,95.56
2018-06-09T15:26:07.997Z,92.99
2018-06-09T15:28:38.665Z,92.72
2018-06-09T15:31:09.735Z,93.02
2018-06-09T15:33:38.404Z,91.75
2018-06-09T15:36:06.959Z,94.07
2018-06-09T15:38:35.468Z,93.38
2018-06-09T15:41:04.085Z,94.17
2018-06-09T15:43:32.680Z,94.30
2018-06-09T15:46:01.433Z,93.45
2018-06-09T15:48:30.597Z,95.53
2018-06-09T15:50:59.267Z,97.03
2018-06-09T15:53:27.824Z,98.57
2018-06-09T15:55:56.358Z,98.08
2018-06-09T15:58:25.177Z,95.55
2018-06-09T16:00:54.232Z,96.00
2018-06-09T16:03:23.592Z,96.09
2018-06-09T16:05:52.104Z,95.68
2018-06-09T16:08:23.242Z,95.44
2018-06-09T16:10:51.773Z,96.54
2018-06-09T16:13:20.292Z,97.05
2018-06-09T16:15:48.804Z,97.33
2018-06-09T16:18:17.353Z,96.63
2018-06-09T16:20:46.867Z,95.82
2018-06-09T16:23:15.403Z,95.89
2018-06-09T16:25:43.888Z,95.89
2018-06-09T16:28:12.412Z,96.17
2018-06-09T16:30:40.921Z,96.95
2018-06-09T16:33:09.459Z,97.04
2018-06-09T16:35:37.960Z,98.80
2018-06-09T16:38:06.560Z,97.04
2018-06-09T16:40:35.096Z,95.54
2018-06-09T16:43:03.596Z,95.20
2018-06-09T16:45:32.442Z,94.32
2018-06-09T16:48:01.887Z,94.96
2018-06-09T16:50:32.358Z,99.04
2018-06-09T16:53:02.708Z,98.32
2018-06-09T16:55:35.973Z,96.31
2018-06-09T16:58:04.851Z,95.66
2018-06-09T17:00:33.397Z,96.12
2018-06-09T17:03:01.913Z,96.00
2018-06-09T17:05:31.485Z,96.92
2018-06-09T17:07:59.993Z,96.22
2018-06-09T17:10:28.815Z,97.71
2018-06-09T17:12:59.956Z,97.30
2018-06-09T17:15:28.890Z,96.46
2018-06-09T17:17:57.447Z,97.96
2018-06-09T17:20:26.335Z,98.71
2018-06-09T17:22:54.852Z,99.20
2018-06-09T17:25:23.389Z,99.85
2018-06-09T17:27:51.884Z,97.60
2018-06-09T17:30:20.432Z,99.34
2018-06-09T17:32:48.929Z,99.04
2018-06-09T17:35:17.464Z,99.26
2018-06-09T17:37:45.968Z,97.79
2018-06-09T17:40:16.573Z,98.26
2018-06-09T17:42:45.080Z,97.23
2018-06-09T17:45:16.208Z,96.70
2018-06-09T17:47:45.069Z,97.42
2018-06-09T17:50:13.616Z,96.12
2018-06-09T17:52:42.112Z,97.25
2018-06-09T17:55:13.033Z,95.79
2018-06-09T17:57:41.640Z,97.19
2018-06-09T18:00:10.761Z,97.01
2018-06-09T18:02:39.371Z,99.22
2018-06-09T18:05:07.928Z,99.41
2018-06-09T18:07:36.768Z,99.06
2018-06-09T18:10:05.355Z,97.10
2018-06-09T18:12:34.038Z,96.39
2018-06-09T18:15:08.933Z,95.93
2018-06-09T18:17:39.185Z,95.73
2018-06-09T18:20:08.599Z,96.86
2018-06-09T18:22:37.599Z,98.46
2018-06-09T18:25:06.916Z,98.92
2018-06-09T18:27:35.481Z,99.85
2018-06-09T18:30:04.127Z,98.58
2018-06-09T18:32:35.940Z,98.61
2018-06-09T18:35:04.508Z,99.48
2018-06-09T18:37:33.792Z,98.77
2018-06-09T18:40:02.312Z,97.15
2018-06-09T18:42:31.915Z,99.15
2018-06-09T18:45:02.534Z,99.08
2018-06-09T18:47:31.979Z,99.24
2018-06-09T18:50:01.156Z,99.68
2018-06-09T18:52:34.217Z,100.00
2018-06-09T18:55:02.755Z,100.00
2018-06-09T18:57:32.229Z,100.00
2018-06-09T19:00:01.827Z,100.00
2018-06-09T19:02:31.437Z,100.00
2018-06-09T19:04:59.954Z,100.00
2018-06-09T19:07:28.516Z,100.00
2018-06-09T19:09:57.677Z,100.00
2018-06-09T19:12:26.213Z,100.00
2018-06-09T19:14:56.128Z,100.00
2018-06-09T19:17:24.681Z,100.00
2018-06-09T19:19:53.180Z,100.00
2018-06-09T19:22:21.725Z,100.00
2018-06-09T19:24:50.244Z,100.00
2018-06-09T19:27:22.296Z,100.00
2018-06-09T19:29:50.889Z,100.00
2018-06-09T19:32:19.480Z,100.00
2018-06-09T19:34:47.994Z,97.90
2018-06-09T19:37:16.536Z,99.68
2018-06-09T19:39:45.035Z,98.31
2018-06-09T19:42:13.585Z,98.47
2018-06-09T19:44:42.100Z,97.06
2018-06-09T19:47:11.223Z,97.35
2018-06-09T19:49:39.950Z,98.82
2018-06-09T19:52:08.524Z,99.69
2018-06-09T19:54:37.059Z,100.00
2018-06-09T19:57:05.713Z,100.00
2018-06-09T19:59:34.251Z,100.00
2018-06-09T20:02:02.821Z,100.00
2018-06-09T20:04:33.025Z,100.00
2018-06-09T20:07:01.593Z,100.00
2018-06-09T20:09:30.124Z,100.00
2018-06-09T20:11:58.693Z,100.00
2018-06-09T20:14:27.221Z,100.00
2018-06-09T20:16:55.816Z,100.00
2018-06-09T20:19:24.353Z,100.00
2018-06-09T20:21:52.914Z,100.00
2018-06-09T20:24:21.467Z,100.00
2018-06-09T20:26:50.029Z,100.00
2018-06-09T20:29:18.593Z,100.00
2018-06-09T20:31:47.157Z,100.00
2018-06-09T20:34:16.006Z,100.00
2018-06-09T20:36:44.589Z,100.00
2018-06-09T20:39:13.128Z,100.00
2018-06-09T20:41:41.694Z,100.00
2018-06-09T20:44:10.244Z,100.00
2018-06-09T20:46:40.077Z,100.00
2018-06-09T20:49:08.637Z,100.00
2018-06-09T20:51:37.177Z,100.00
2018-06-09T20:54:05.737Z,100.00
2018-06-09T20:56:34.268Z,100.00
2018-06-09T20:59:02.882Z,100.00
2018-06-09T21:01:31.392Z,100.00
2018-06-09T21:03:59.940Z,100.00
2018-06-09T21:06:28.479Z,100.00
2018-06-09T21:08:57.017Z,100.00
2018-06-09T21:11:25.587Z,100.00
2018-06-09T21:13:54.691Z,100.00
2018-06-09T21:16:23.268Z,100.00
2018-06-09T21:18:51.833Z,100.00
2018-06-09T21:21:20.338Z,100.00
2018-06-09T21:23:48.872Z,100.00
2018-06-09T21:26:17.669Z,100.00
2018-06-09T21:28:51.792Z,100.00
2018-06-09T21:31:25.526Z,100.00
2018-06-09T21:34:05.713Z,100.00
2018-06-09T21:36:39.616Z,100.00
2018-06-09T21:40:18.237Z,100.00
2018-06-09T21:43:49.903Z,100.00
2018-06-09T21:46:23.901Z,100.00
2018-06-09T21:48:52.518Z,100.00
2018-06-09T21:51:20.988Z,100.00
2018-06-09T21:53:49.551Z,100.00
2018-06-09T21:56:18.068Z,100.00
2018-06-09T21:58:46.657Z,100.00
2018-06-09T22:01:15.239Z,100.00
2018-06-09T22:03:43.815Z,100.00
2018-06-09T22:06:12.337Z,100.00
2018-06-09T22:08:40.920Z,100.00
2018-06-09T22:11:09.466Z,100.00
2018-06-09T22:13:37.997Z,100.00
2018-06-09T22:16:06.552Z,100.00
2018-06-09T22:18:35.396Z,100.00
2018-06-09T22:21:03.976Z,100.00
2018-06-09T22:23:33.177Z,100.00
2018-06-09T22:26:01.858Z,100.00
2018-06-09T22:28:30.383Z,100.00
2018-06-09T22:30:58.941Z,100.00
2018-06-09T22:33:27.472Z,100.00
2018-06-09T22:35:56.035Z,100.00
2018-06-09T22:38:24.567Z,100.00
2018-06-09T22:40:53.135Z,100.00
2018-06-09T22:43:21.689Z,100.00
2018-06-09T22:45:53.869Z,100.00
2018-06-09T22:48:22.385Z,100.00
2018-06-09T22:50:50.948Z,100.00
2018-06-09T22:53:19.474Z,100.00
2018-06-09T22:55:48.025Z,100.00
2018-06-09T22:58:16.596Z,100.00
2018-06-09T23:00:47.118Z,100.00
2018-06-09T23:03:16.332Z,100.00
2018-06-09T23:05:47.251Z,100.00
2018-06-09T23:08:22.762Z,100.00
2018-06-09T23:10:51.384Z,100.00
2018-06-09T23:13:20.029Z,100.00
2018-06-09T23:15:48.597Z,100.00
2018-06-09T23:18:17.117Z,100.00
2018-06-09T23:20:45.684Z,100.00
2018-06-09T23:23:14.214Z,100.00
2018-06-09T23:25:42.775Z,100.00
2018-06-09T23:28:11.608Z,100.00
2018-06-09T23:30:40.179Z,100.00
2018-06-09T23:33:08.804Z,100.00
2018-06-09T23:35:37.354Z,100.00
2018-06-09T23:38:05.899Z,100.00
2018-06-09T23:40:34.456Z,100.00
2018-06-09T23:43:03.417Z,100.00
2018-06-09T23:45:32.002Z,100.00
2018-06-09T23:48:00.522Z,100.00
2018-06-09T23:50:29.168Z,100.00
2018-06-09T23:52:57.733Z,100.00
2018-06-09T23:55:26.610Z,100.00
2018-06-09T23:57:55.152Z,100.00
